sensor_id;sensor_type;location;lat;lon;timestamp;pressure;altitude;pressure_sealevel;temperature;humidity
47284;BME280;33017;51.074;17.004;2023-06-14T06:24:18;100203.56;;;24.95;40.70
47284;BME280;33017;51.074;17.004;2023-06-14T06:26:46;100204.41;;;24.96;40.65
47284;BME280;33017;51.074;17.004;2023-06-14T06:29:13;100210.50;;;24.98;40.62
47284;BME280;33017;51.074;17.004;2023-06-14T06:31:40;100206.09;;;24.97;40.62
47284;BME280;33017;51.074;17.004;2023-06-14T06:34:07;100205.00;;;24.98;40.64
47284;BME280;33017;51.074;17.004;2023-06-14T06:36:34;100209.69;;;24.97;40.63
47284;BME280;33017;51.074;17.004;2023-06-14T06:39:01;100143.69;;;24.56;40.67
47284;BME280;33017;51.074;17.004;2023-06-14T06:41:31;100220.44;;;24.99;40.67
47284;BME280;33017;51.074;17.004;2023-06-14T06:43:58;100224.03;;;24.99;40.76
47284;BME280;33017;51.074;17.004;2023-06-14T06:46:28;100214.25;;;25.03;40.67
47284;BME280;33017;51.074;17.004;2023-06-14T06:48:54;100209.09;;;25.07;40.69
47284;BME280;33017;51.074;17.004;2023-06-14T06:51:21;100215.22;;;25.09;40.46
47284;BME280;33017;51.074;17.004;2023-06-14T06:53:52;100212.69;;;25.07;40.49
47284;BME280;33017;51.074;17.004;2023-06-14T06:56:18;100220.09;;;25.07;40.53
47284;BME280;33017;51.074;17.004;2023-06-14T06:58:46;100232.19;;;25.06;40.61
47284;BME280;33017;51.074;17.004;2023-06-14T07:01:13;100230.50;;;25.05;40.58
47284;BME280;33017;51.074;17.004;2023-06-14T07:03:40;100232.66;;;25.03;40.60
47284;BME280;33017;51.074;17.004;2023-06-14T07:06:07;100235.66;;;25.01;40.62
47284;BME280;33017;51.074;17.004;2023-06-14T07:08:34;100240.31;;;25.01;40.53
47284;BME280;33017;51.074;17.004;2023-06-14T07:11:00;100242.34;;;25.05;40.58
47284;BME280;33017;51.074;17.004;2023-06-14T07:13:27;100239.13;;;25.08;40.68
47284;BME280;33017;51.074;17.004;2023-06-14T07:15:54;100231.84;;;25.14;40.78
47284;BME280;33017;51.074;17.004;2023-06-14T07:18:21;100236.50;;;25.13;40.48
47284;BME280;33017;51.074;17.004;2023-06-14T07:20:49;100233.53;;;25.15;40.50
47284;BME280;33017;51.074;17.004;2023-06-14T07:23:16;100244.06;;;25.18;40.71
47284;BME280;33017;51.074;17.004;2023-06-14T07:25:43;100236.13;;;25.21;40.65
47284;BME280;33017;51.074;17.004;2023-06-14T07:28:10;100231.34;;;25.28;40.59
47284;BME280;33017;51.074;17.004;2023-06-14T07:31:01;100220.13;;;25.30;40.68
47284;BME280;33017;51.074;17.004;2023-06-14T07:33:29;100226.09;;;25.27;40.59
47284;BME280;33017;51.074;17.004;2023-06-14T07:35:56;100222.25;;;25.28;40.51
47284;BME280;33017;51.074;17.004;2023-06-14T07:38:22;100218.31;;;25.35;40.42
47284;BME280;33017;51.074;17.004;2023-06-14T07:40:49;100223.56;;;25.37;40.55
47284;BME280;33017;51.074;17.004;2023-06-14T07:43:16;100219.97;;;25.36;40.39
47284;BME280;33017;51.074;17.004;2023-06-14T07:45:43;100225.13;;;25.33;40.62
47284;BME280;33017;51.074;17.004;2023-06-14T07:48:19;100229.81;;;25.32;40.64
47284;BME280;33017;51.074;17.004;2023-06-14T07:50:46;100232.56;;;25.32;40.69
47284;BME280;33017;51.074;17.004;2023-06-14T07:53:13;100237.44;;;25.30;40.51
47284;BME280;33017;51.074;17.004;2023-06-14T07:55:39;100230.28;;;25.29;40.49
47284;BME280;33017;51.074;17.004;2023-06-14T07:58:18;100234.13;;;25.28;40.72
47284;BME280;33017;51.074;17.004;2023-06-14T08:00:45;100233.28;;;25.28;40.77
47284;BME280;33017;51.074;17.004;2023-06-14T08:03:12;100239.88;;;25.27;40.81
47284;BME280;33017;51.074;17.004;2023-06-14T08:05:39;100226.34;;;25.25;40.67
47284;BME280;33017;51.074;17.004;2023-06-14T08:08:06;100234.00;;;25.23;40.56
47284;BME280;33017;51.074;17.004;2023-06-14T08:10:33;100228.13;;;25.31;40.90
47284;BME280;33017;51.074;17.004;2023-06-14T08:12:59;100225.63;;;24.77;41.40
47284;BME280;33017;51.074;17.004;2023-06-14T08:15:26;100226.94;;;24.63;41.42
47284;BME280;33017;51.074;17.004;2023-06-14T08:17:53;100229.78;;;24.56;41.71
47284;BME280;33017;51.074;17.004;2023-06-14T08:20:20;100224.50;;;24.43;41.51
47284;BME280;33017;51.074;17.004;2023-06-14T08:22:47;100218.44;;;24.53;41.48
47284;BME280;33017;51.074;17.004;2023-06-14T08:25:14;100220.84;;;24.61;41.36
47284;BME280;33017;51.074;17.004;2023-06-14T08:27:41;100221.38;;;24.40;41.49
47284;BME280;33017;51.074;17.004;2023-06-14T08:30:08;100216.44;;;24.30;41.43
47284;BME280;33017;51.074;17.004;2023-06-14T08:32:36;100227.28;;;24.25;42.10
47284;BME280;33017;51.074;17.004;2023-06-14T08:35:03;100229.59;;;23.92;42.20
47284;BME280;33017;51.074;17.004;2023-06-14T08:37:31;100226.41;;;24.13;41.66
47284;BME280;33017;51.074;17.004;2023-06-14T08:40:00;100234.47;;;24.26;41.39
47284;BME280;33017;51.074;17.004;2023-06-14T08:42:27;100230.53;;;24.33;41.47
47284;BME280;33017;51.074;17.004;2023-06-14T08:44:57;100227.94;;;24.39;41.44
47284;BME280;33017;51.074;17.004;2023-06-14T08:47:25;100226.78;;;24.46;41.31
47284;BME280;33017;51.074;17.004;2023-06-14T08:49:53;100227.75;;;24.52;41.25
47284;BME280;33017;51.074;17.004;2023-06-14T08:52:23;100224.75;;;24.53;41.04
47284;BME280;33017;51.074;17.004;2023-06-14T08:54:56;100224.06;;;24.58;41.16
47284;BME280;33017;51.074;17.004;2023-06-14T08:57:24;100228.00;;;24.62;41.20
47284;BME280;33017;51.074;17.004;2023-06-14T08:59:53;100224.31;;;24.68;41.26
47284;BME280;33017;51.074;17.004;2023-06-14T09:02:21;100232.38;;;24.81;42.07
47284;BME280;33017;51.074;17.004;2023-06-14T09:04:49;100232.09;;;24.71;42.13
47284;BME280;33017;51.074;17.004;2023-06-14T09:07:22;100228.78;;;24.80;41.81
47284;BME280;33017;51.074;17.004;2023-06-14T09:09:49;100236.84;;;24.94;41.67
47284;BME280;33017;51.074;17.004;2023-06-14T09:12:31;100230.38;;;24.88;41.79
47284;BME280;33017;51.074;17.004;2023-06-14T09:14:58;100225.16;;;24.80;41.80
47284;BME280;33017;51.074;17.004;2023-06-14T09:17:26;100228.06;;;24.73;41.80
47284;BME280;33017;51.074;17.004;2023-06-14T09:19:54;100225.63;;;24.65;42.02
47284;BME280;33017;51.074;17.004;2023-06-14T09:22:21;100220.50;;;24.69;42.29
47284;BME280;33017;51.074;17.004;2023-06-14T09:24:48;100226.72;;;24.76;42.58
47284;BME280;33017;51.074;17.004;2023-06-14T09:27:15;100235.16;;;25.04;41.65
47284;BME280;33017;51.074;17.004;2023-06-14T09:29:42;100233.53;;;25.15;41.61
47284;BME280;33017;51.074;17.004;2023-06-14T09:32:09;100232.91;;;25.01;41.69
47284;BME280;33017;51.074;17.004;2023-06-14T09:34:36;100227.41;;;25.24;41.50
47284;BME280;33017;51.074;17.004;2023-06-14T09:37:03;100220.25;;;25.23;41.83
47284;BME280;33017;51.074;17.004;2023-06-14T09:39:31;100222.72;;;25.25;41.95
47284;BME280;33017;51.074;17.004;2023-06-14T09:41:57;100217.84;;;25.38;41.76
47284;BME280;33017;51.074;17.004;2023-06-14T09:44:25;100230.88;;;25.43;42.00
47284;BME280;33017;51.074;17.004;2023-06-14T09:46:55;100223.69;;;25.42;41.99
47284;BME280;33017;51.074;17.004;2023-06-14T09:49:22;100227.28;;;25.42;41.99
47284;BME280;33017;51.074;17.004;2023-06-14T09:51:50;100229.81;;;25.44;42.20
47284;BME280;33017;51.074;17.004;2023-06-14T09:54:20;100151.06;;;25.08;41.98
47284;BME280;33017;51.074;17.004;2023-06-14T09:56:48;100227.63;;;25.46;42.08
47284;BME280;33017;51.074;17.004;2023-06-14T09:59:19;100226.56;;;25.47;42.25
47284;BME280;33017;51.074;17.004;2023-06-14T10:01:48;100223.38;;;25.50;42.29
47284;BME280;33017;51.074;17.004;2023-06-14T10:04:15;100233.75;;;25.71;42.10
47284;BME280;33017;51.074;17.004;2023-06-14T10:06:43;100230.38;;;25.81;42.45
47284;BME280;33017;51.074;17.004;2023-06-14T10:09:12;100242.19;;;25.93;42.94
47284;BME280;33017;51.074;17.004;2023-06-14T10:11:39;100238.59;;;25.92;42.58
47284;BME280;33017;51.074;17.004;2023-06-14T10:14:11;100243.88;;;25.94;42.14
47284;BME280;33017;51.074;17.004;2023-06-14T10:22:18;100240.47;;;25.64;42.08
47284;BME280;33017;51.074;17.004;2023-06-14T10:24:37;100249.09;;;25.56;42.06
47284;BME280;33017;51.074;17.004;2023-06-14T10:27:06;100242.00;;;25.60;41.99
47284;BME280;33017;51.074;17.004;2023-06-14T10:32:22;100243.00;;;25.65;41.50
47284;BME280;33017;51.074;17.004;2023-06-14T10:34:56;100243.00;;;25.65;41.49
47284;BME280;33017;51.074;17.004;2023-06-14T10:37:23;100229.53;;;25.69;41.50
47284;BME280;33017;51.074;17.004;2023-06-14T10:39:51;100228.75;;;25.68;41.28
47284;BME280;33017;51.074;17.004;2023-06-14T10:42:19;100235.78;;;25.64;41.09
47284;BME280;33017;51.074;17.004;2023-06-14T10:44:49;100228.25;;;25.60;41.26
47284;BME280;33017;51.074;17.004;2023-06-14T10:49:52;100229.25;;;25.54;41.11
47284;BME280;33017;51.074;17.004;2023-06-14T10:52:23;100228.13;;;25.55;41.20
47284;BME280;33017;51.074;17.004;2023-06-14T10:57:38;100222.63;;;25.43;41.09
47284;BME280;33017;51.074;17.004;2023-06-14T11:00:17;100222.88;;;25.41;41.33
47284;BME280;33017;51.074;17.004;2023-06-14T11:05:14;100213.16;;;25.39;41.13
47284;BME280;33017;51.074;17.004;2023-06-14T11:10:25;100219.03;;;25.31;40.88
47284;BME280;33017;51.074;17.004;2023-06-14T11:12:53;100217.69;;;25.33;41.08
47284;BME280;33017;51.074;17.004;2023-06-14T11:15:27;100216.75;;;25.28;41.09
47284;BME280;33017;51.074;17.004;2023-06-14T11:17:54;100210.28;;;25.22;40.84
47284;BME280;33017;51.074;17.004;2023-06-14T11:20:24;100209.94;;;25.19;40.88
47284;BME280;33017;51.074;17.004;2023-06-14T11:22:54;100206.94;;;25.20;40.85
47284;BME280;33017;51.074;17.004;2023-06-14T11:25:21;100207.91;;;25.26;41.62
47284;BME280;33017;51.074;17.004;2023-06-14T11:27:49;100206.59;;;25.17;41.45
47284;BME280;33017;51.074;17.004;2023-06-14T11:30:16;100210.28;;;25.11;41.84
47284;BME280;33017;51.074;17.004;2023-06-14T11:32:46;100204.78;;;25.11;41.54
47284;BME280;33017;51.074;17.004;2023-06-14T11:35:13;100202.63;;;25.13;41.68
47284;BME280;33017;51.074;17.004;2023-06-14T11:37:40;100210.03;;;25.12;41.84
47284;BME280;33017;51.074;17.004;2023-06-14T11:40:08;100208.28;;;25.18;41.81
47284;BME280;33017;51.074;17.004;2023-06-14T11:42:36;100208.03;;;25.19;41.80
47284;BME280;33017;51.074;17.004;2023-06-14T11:45:04;100211.25;;;25.16;42.31
47284;BME280;33017;51.074;17.004;2023-06-14T11:47:35;100210.19;;;25.29;42.61
47284;BME280;33017;51.074;17.004;2023-06-14T11:50:03;100207.44;;;25.52;42.51
47284;BME280;33017;51.074;17.004;2023-06-14T11:52:30;100204.44;;;25.65;42.22
47284;BME280;33017;51.074;17.004;2023-06-14T11:54:57;100204.13;;;25.78;42.34
47284;BME280;33017;51.074;17.004;2023-06-14T11:57:25;100200.63;;;25.94;42.47
47284;BME280;33017;51.074;17.004;2023-06-14T11:59:52;100195.06;;;26.06;42.30
47284;BME280;33017;51.074;17.004;2023-06-14T12:02:21;100190.50;;;26.12;41.96
47284;BME280;33017;51.074;17.004;2023-06-14T12:04:50;100188.72;;;26.06;42.17
47284;BME280;33017;51.074;17.004;2023-06-14T12:07:17;100183.03;;;26.24;41.81
47284;BME280;33017;51.074;17.004;2023-06-14T12:12:25;100170.41;;;26.56;41.94
47284;BME280;33017;51.074;17.004;2023-06-14T12:14:52;100173.91;;;26.68;41.89
47284;BME280;33017;51.074;17.004;2023-06-14T12:17:19;100180.69;;;26.77;41.80
47284;BME280;33017;51.074;17.004;2023-06-14T12:19:46;100172.78;;;26.81;41.72
47284;BME280;33017;51.074;17.004;2023-06-14T12:22:13;100167.97;;;26.76;41.72
47284;BME280;33017;51.074;17.004;2023-06-14T12:24:43;100172.22;;;26.67;41.80
47284;BME280;33017;51.074;17.004;2023-06-14T12:27:10;100172.56;;;26.71;41.66
47284;BME280;33017;51.074;17.004;2023-06-14T12:29:42;100176.75;;;26.73;41.59
47284;BME280;33017;51.074;17.004;2023-06-14T12:32:11;100172.00;;;26.69;41.67
47284;BME280;33017;51.074;17.004;2023-06-14T12:34:38;100173.75;;;26.75;41.22
47284;BME280;33017;51.074;17.004;2023-06-14T12:37:05;100174.59;;;26.75;41.17
47284;BME280;33017;51.074;17.004;2023-06-14T12:39:33;100165.16;;;26.55;41.25
47284;BME280;33017;51.074;17.004;2023-06-14T12:42:00;100171.31;;;26.62;40.77
47284;BME280;33017;51.074;17.004;2023-06-14T12:44:27;100170.06;;;26.52;41.04
47284;BME280;33017;51.074;17.004;2023-06-14T12:46:53;100157.53;;;26.45;41.17
47284;BME280;33017;51.074;17.004;2023-06-14T12:49:21;100167.44;;;26.46;40.95
47284;BME280;33017;51.074;17.004;2023-06-14T12:51:48;100166.53;;;26.40;40.81
47284;BME280;33017;51.074;17.004;2023-06-14T12:54:15;100167.94;;;26.43;40.70
47284;BME280;33017;51.074;17.004;2023-06-14T12:56:48;100167.78;;;26.49;40.62
47284;BME280;33017;51.074;17.004;2023-06-14T12:59:14;100160.44;;;26.55;40.25
47284;BME280;33017;51.074;17.004;2023-06-14T13:01:41;100165.47;;;26.58;40.18
47284;BME280;33017;51.074;17.004;2023-06-14T13:04:08;100162.13;;;26.56;40.26
47284;BME280;33017;51.074;17.004;2023-06-14T13:06:35;100159.88;;;26.53;40.26
47284;BME280;33017;51.074;17.004;2023-06-14T13:09:02;100157.94;;;26.54;40.27
47284;BME280;33017;51.074;17.004;2023-06-14T13:11:30;100109.34;;;26.19;40.02
47284;BME280;33017;51.074;17.004;2023-06-14T13:13:57;100163.69;;;26.52;40.16
47284;BME280;33017;51.074;17.004;2023-06-14T13:16:23;100166.38;;;26.47;40.30
47284;BME280;33017;51.074;17.004;2023-06-14T13:18:50;100162.88;;;26.52;40.33
47284;BME280;33017;51.074;17.004;2023-06-14T13:21:17;100157.06;;;26.81;39.80
47284;BME280;33017;51.074;17.004;2023-06-14T13:23:44;100166.34;;;26.92;39.68
47284;BME280;33017;51.074;17.004;2023-06-14T13:26:11;100161.81;;;27.02;39.58
47284;BME280;33017;51.074;17.004;2023-06-14T13:28:38;100160.28;;;27.12;39.59
47284;BME280;33017;51.074;17.004;2023-06-14T13:31:05;100162.63;;;27.20;39.27
47284;BME280;33017;51.074;17.004;2023-06-14T13:33:32;100161.03;;;27.24;39.60
47284;BME280;33017;51.074;17.004;2023-06-14T13:35:58;100166.94;;;27.32;39.33
47284;BME280;33017;51.074;17.004;2023-06-14T13:38:25;100165.84;;;27.33;39.37
47284;BME280;33017;51.074;17.004;2023-06-14T13:40:52;100156.56;;;27.39;39.34
47284;BME280;33017;51.074;17.004;2023-06-14T13:43:18;100172.66;;;27.26;39.55
47284;BME280;33017;51.074;17.004;2023-06-14T13:45:45;100158.63;;;26.94;39.39
47284;BME280;33017;51.074;17.004;2023-06-14T13:48:12;100161.84;;;27.24;39.21
47284;BME280;33017;51.074;17.004;2023-06-14T13:50:39;100156.78;;;27.16;39.26
47284;BME280;33017;51.074;17.004;2023-06-14T13:53:06;100162.00;;;26.96;39.13
47284;BME280;33017;51.074;17.004;2023-06-14T13:55:33;100161.50;;;26.82;39.52
47284;BME280;33017;51.074;17.004;2023-06-14T13:58:00;100165.97;;;26.72;39.61
47284;BME280;33017;51.074;17.004;2023-06-14T14:00:26;100162.13;;;26.73;39.52
47284;BME280;33017;51.074;17.004;2023-06-14T14:02:53;100164.72;;;26.63;39.71
47284;BME280;33017;51.074;17.004;2023-06-14T14:05:21;100157.78;;;26.77;39.57
47284;BME280;33017;51.074;17.004;2023-06-14T14:07:52;100159.66;;;27.04;39.78
47284;BME280;33017;51.074;17.004;2023-06-14T14:10:19;100152.59;;;27.14;39.96
47284;BME280;33017;51.074;17.004;2023-06-14T14:12:46;100152.34;;;27.15;40.46
47284;BME280;33017;51.074;17.004;2023-06-14T14:15:15;100155.44;;;27.19;40.79
47284;BME280;33017;51.074;17.004;2023-06-14T14:17:42;100159.28;;;27.18;41.25
47284;BME280;33017;51.074;17.004;2023-06-14T14:20:09;100161.03;;;27.24;41.81
47284;BME280;33017;51.074;17.004;2023-06-14T14:22:38;100173.22;;;27.44;42.03
47284;BME280;33017;51.074;17.004;2023-06-14T14:25:04;100168.28;;;27.46;41.78
47284;BME280;33017;51.074;17.004;2023-06-14T14:27:31;100165.25;;;27.48;42.28
47284;BME280;33017;51.074;17.004;2023-06-14T14:29:58;100158.00;;;27.42;42.51
47284;BME280;33017;51.074;17.004;2023-06-14T14:32:25;100155.91;;;27.49;43.08
47284;BME280;33017;51.074;17.004;2023-06-14T14:34:53;100159.28;;;27.56;42.96
47284;BME280;33017;51.074;17.004;2023-06-14T14:37:20;100153.13;;;27.32;42.07
47284;BME280;33017;51.074;17.004;2023-06-14T14:39:46;100156.66;;;27.44;41.47
47284;BME280;33017;51.074;17.004;2023-06-14T14:42:13;100162.44;;;27.43;41.41
47284;BME280;33017;51.074;17.004;2023-06-14T14:44:40;100168.38;;;27.35;40.92
47284;BME280;33017;51.074;17.004;2023-06-14T14:47:07;100172.84;;;27.41;40.63
47284;BME280;33017;51.074;17.004;2023-06-14T14:49:34;100177.41;;;27.30;40.39
47284;BME280;33017;51.074;17.004;2023-06-14T14:52:00;100179.59;;;27.28;40.26
47284;BME280;33017;51.074;17.004;2023-06-14T14:54:40;100177.47;;;27.52;39.97
47284;BME280;33017;51.074;17.004;2023-06-14T14:57:06;100188.97;;;27.66;39.99
47284;BME280;33017;51.074;17.004;2023-06-14T14:59:33;100174.09;;;27.67;39.69
47284;BME280;33017;51.074;17.004;2023-06-14T15:02:00;100178.31;;;27.74;39.52
47284;BME280;33017;51.074;17.004;2023-06-14T15:04:27;100181.69;;;27.76;39.61
47284;BME280;33017;51.074;17.004;2023-06-14T15:06:54;100181.97;;;27.80;39.49
47284;BME280;33017;51.074;17.004;2023-06-14T15:09:21;100183.66;;;27.81;39.39
47284;BME280;33017;51.074;17.004;2023-06-14T15:11:47;100176.19;;;27.81;39.44
47284;BME280;33017;51.074;17.004;2023-06-14T15:14:14;100185.34;;;27.82;39.59
47284;BME280;33017;51.074;17.004;2023-06-14T15:16:42;100186.78;;;27.89;39.58
47284;BME280;33017;51.074;17.004;2023-06-14T15:19:08;100183.13;;;27.84;39.62
47284;BME280;33017;51.074;17.004;2023-06-14T15:21:35;100177.56;;;27.79;39.92
47284;BME280;33017;51.074;17.004;2023-06-14T15:24:02;100179.22;;;27.80;40.35
47284;BME280;33017;51.074;17.004;2023-06-14T15:26:29;100180.31;;;27.79;40.53
47284;BME280;33017;51.074;17.004;2023-06-14T15:28:56;100181.16;;;27.79;40.98
47284;BME280;33017;51.074;17.004;2023-06-14T15:31:22;100179.44;;;27.73;40.91
47284;BME280;33017;51.074;17.004;2023-06-14T15:33:52;100180.44;;;27.67;41.46
47284;BME280;33017;51.074;17.004;2023-06-14T15:36:19;100181.03;;;27.69;41.44
47284;BME280;33017;51.074;17.004;2023-06-14T15:38:46;100179.94;;;27.70;41.40
47284;BME280;33017;51.074;17.004;2023-06-14T15:41:13;100176.56;;;27.68;41.83
47284;BME280;33017;51.074;17.004;2023-06-14T15:43:40;100184.03;;;27.68;41.74
47284;BME280;33017;51.074;17.004;2023-06-14T15:46:06;100184.34;;;27.71;41.79
47284;BME280;33017;51.074;17.004;2023-06-14T15:48:33;100178.59;;;27.73;41.48
47284;BME280;33017;51.074;17.004;2023-06-14T15:51:01;100177.44;;;27.90;41.21
47284;BME280;33017;51.074;17.004;2023-06-14T15:53:27;100174.91;;;27.89;41.06
47284;BME280;33017;51.074;17.004;2023-06-14T15:55:54;100167.44;;;27.89;41.06
47284;BME280;33017;51.074;17.004;2023-06-14T15:58:21;100169.13;;;27.90;40.87
47284;BME280;33017;51.074;17.004;2023-06-14T16:00:48;100166.09;;;28.13;40.62
47284;BME280;33017;51.074;17.004;2023-06-14T16:03:15;100164.41;;;28.12;40.37
47284;BME280;33017;51.074;17.004;2023-06-14T16:05:42;100179.88;;;28.08;40.53
47284;BME280;33017;51.074;17.004;2023-06-14T16:08:08;100168.94;;;27.97;40.45
47284;BME280;33017;51.074;17.004;2023-06-14T16:10:35;100169.38;;;28.10;40.45
47284;BME280;33017;51.074;17.004;2023-06-14T16:13:02;100179.03;;;28.08;40.31
47284;BME280;33017;51.074;17.004;2023-06-14T16:15:29;100176.31;;;28.13;40.19
47284;BME280;33017;51.074;17.004;2023-06-14T16:17:56;100171.91;;;28.12;40.25
47284;BME280;33017;51.074;17.004;2023-06-14T16:20:22;100169.81;;;28.02;40.18
47284;BME280;33017;51.074;17.004;2023-06-14T16:22:49;100175.13;;;28.04;40.20
47284;BME280;33017;51.074;17.004;2023-06-14T16:25:16;100171.94;;;28.17;39.87
47284;BME280;33017;51.074;17.004;2023-06-14T16:27:43;100179.78;;;28.25;39.69
47284;BME280;33017;51.074;17.004;2023-06-14T16:30:09;100178.72;;;28.31;39.85
47284;BME280;33017;51.074;17.004;2023-06-14T16:32:36;100176.69;;;28.22;39.75
47284;BME280;33017;51.074;17.004;2023-06-14T16:35:03;100174.03;;;28.05;40.01
47284;BME280;33017;51.074;17.004;2023-06-14T16:37:30;100180.94;;;28.29;39.70
47284;BME280;33017;51.074;17.004;2023-06-14T16:39:57;100176.81;;;28.32;39.58
47284;BME280;33017;51.074;17.004;2023-06-14T16:42:24;100180.03;;;27.80;39.30
47284;BME280;33017;51.074;17.004;2023-06-14T16:44:50;100188.13;;;27.27;39.32
47284;BME280;33017;51.074;17.004;2023-06-14T16:47:17;100179.88;;;27.10;39.12
47284;BME280;33017;51.074;17.004;2023-06-14T16:49:44;100185.47;;;27.15;39.40
47284;BME280;33017;51.074;17.004;2023-06-14T16:52:11;100187.31;;;27.65;38.50
47284;BME280;33017;51.074;17.004;2023-06-14T16:54:38;100189.38;;;27.36;38.77
47284;BME280;33017;51.074;17.004;2023-06-14T16:57:04;100183.72;;;27.26;38.43
47284;BME280;33017;51.074;17.004;2023-06-14T16:59:33;100184.38;;;26.99;39.11
47284;BME280;33017;51.074;17.004;2023-06-14T17:02:03;100186.41;;;26.87;39.38
47284;BME280;33017;51.074;17.004;2023-06-14T17:04:31;100188.28;;;26.70;38.87
47284;BME280;33017;51.074;17.004;2023-06-14T17:06:58;100199.09;;;26.27;40.01
47284;BME280;33017;51.074;17.004;2023-06-14T17:09:25;100190.56;;;26.28;39.83
47284;BME280;33017;51.074;17.004;2023-06-14T17:11:53;100201.63;;;25.88;40.62
47284;BME280;33017;51.074;17.004;2023-06-14T17:14:19;100196.47;;;26.20;40.68
47284;BME280;33017;51.074;17.004;2023-06-14T17:16:46;100198.94;;;26.78;39.37
47284;BME280;33017;51.074;17.004;2023-06-14T17:19:13;100199.38;;;26.42;39.31
47284;BME280;33017;51.074;17.004;2023-06-14T17:21:40;100212.03;;;26.26;39.69
47284;BME280;33017;51.074;17.004;2023-06-14T17:24:09;100209.63;;;26.30;40.00
47284;BME280;33017;51.074;17.004;2023-06-14T17:26:50;100220.94;;;26.17;40.30
47284;BME280;33017;51.074;17.004;2023-06-14T17:29:16;100213.38;;;26.24;40.26
47284;BME280;33017;51.074;17.004;2023-06-14T17:31:44;100213.78;;;26.04;40.66
47284;BME280;33017;51.074;17.004;2023-06-14T17:34:10;100218.78;;;25.44;41.90
47284;BME280;33017;51.074;17.004;2023-06-14T17:36:37;100213.63;;;25.71;41.62
47284;BME280;33017;51.074;17.004;2023-06-14T17:39:04;100219.25;;;25.76;41.62
47284;BME280;33017;51.074;17.004;2023-06-14T17:41:31;100212.53;;;25.72;41.63
47284;BME280;33017;51.074;17.004;2023-06-14T17:43:59;100211.78;;;25.88;40.95
47284;BME280;33017;51.074;17.004;2023-06-14T17:46:26;100214.53;;;25.88;41.43
47284;BME280;33017;51.074;17.004;2023-06-14T17:48:52;100208.63;;;25.56;42.47
47284;BME280;33017;51.074;17.004;2023-06-14T17:51:19;100213.75;;;25.64;42.03
47284;BME280;33017;51.074;17.004;2023-06-14T17:53:46;100211.50;;;25.61;41.74
47284;BME280;33017;51.074;17.004;2023-06-14T17:56:13;100206.41;;;25.81;41.46
47284;BME280;33017;51.074;17.004;2023-06-14T17:58:40;100207.41;;;25.64;41.65
47284;BME280;33017;51.074;17.004;2023-06-14T18:01:07;100203.97;;;25.57;41.58
47284;BME280;33017;51.074;17.004;2023-06-14T18:03:34;100195.91;;;25.43;41.84
47284;BME280;33017;51.074;17.004;2023-06-14T18:06:01;100205.88;;;25.45;41.99
47284;BME280;33017;51.074;17.004;2023-06-14T18:08:28;100211.00;;;25.41;41.85
47284;BME280;33017;51.074;17.004;2023-06-14T18:10:55;100200.13;;;25.23;41.97
47284;BME280;33017;51.074;17.004;2023-06-14T18:13:22;100203.09;;;25.33;41.85
47284;BME280;33017;51.074;17.004;2023-06-14T18:15:49;100203.47;;;25.13;42.27
47284;BME280;33017;51.074;17.004;2023-06-14T18:18:16;100201.28;;;24.92;42.49
47284;BME280;33017;51.074;17.004;2023-06-14T18:20:45;100195.44;;;24.88;42.86
47284;BME280;33017;51.074;17.004;2023-06-14T18:23:12;100134.28;;;24.63;43.04
47284;BME280;33017;51.074;17.004;2023-06-14T18:25:39;100207.53;;;25.22;42.39
47284;BME280;33017;51.074;17.004;2023-06-14T18:28:06;100205.00;;;25.67;42.03
47284;BME280;33017;51.074;17.004;2023-06-14T18:30:33;100211.50;;;25.38;41.73
47284;BME280;33017;51.074;17.004;2023-06-14T18:33:00;100199.16;;;25.64;41.07
47284;BME280;33017;51.074;17.004;2023-06-14T18:35:26;100211.72;;;25.71;41.22
47284;BME280;33017;51.074;17.004;2023-06-14T18:37:55;100212.72;;;25.93;40.72
47284;BME280;33017;51.074;17.004;2023-06-14T18:40:21;100221.28;;;25.69;40.79
47284;BME280;33017;51.074;17.004;2023-06-14T18:42:48;100224.41;;;26.12;40.32
47284;BME280;33017;51.074;17.004;2023-06-14T18:45:15;100227.38;;;26.22;40.39
47284;BME280;33017;51.074;17.004;2023-06-14T18:47:42;100225.00;;;25.63;40.94
47284;BME280;33017;51.074;17.004;2023-06-14T18:50:09;100226.06;;;26.53;39.85
47284;BME280;33017;51.074;17.004;2023-06-14T18:52:37;100227.06;;;25.56;40.86
47284;BME280;33017;51.074;17.004;2023-06-14T18:55:04;100232.31;;;24.99;41.88
47284;BME280;33017;51.074;17.004;2023-06-14T18:57:31;100229.56;;;25.34;41.34
47284;BME280;33017;51.074;17.004;2023-06-14T18:59:58;100225.09;;;24.86;42.36
47284;BME280;33017;51.074;17.004;2023-06-14T19:02:25;100239.97;;;24.97;42.00
47284;BME280;33017;51.074;17.004;2023-06-14T19:04:54;100235.00;;;24.76;42.49
47284;BME280;33017;51.074;17.004;2023-06-14T19:07:21;100233.94;;;24.47;42.91
47284;BME280;33017;51.074;17.004;2023-06-14T19:09:47;100231.31;;;24.41;43.13
47284;BME280;33017;51.074;17.004;2023-06-14T19:12:14;100242.84;;;24.31;43.19
47284;BME280;33017;51.074;17.004;2023-06-14T19:14:41;100241.19;;;24.42;42.99
47284;BME280;33017;51.074;17.004;2023-06-14T19:17:08;100231.53;;;24.39;43.11
47284;BME280;33017;51.074;17.004;2023-06-14T19:19:34;100238.91;;;24.39;43.14
47284;BME280;33017;51.074;17.004;2023-06-14T19:22:01;100235.75;;;24.23;43.32
47284;BME280;33017;51.074;17.004;2023-06-14T19:24:29;100246.69;;;24.42;43.13
47284;BME280;33017;51.074;17.004;2023-06-14T19:26:57;100242.34;;;24.22;43.56